Time;durP1;ratioP1;P1;durP2;ratioP2;P2;SDS_P1;SDS_P2;PMS_P1;PMS_P2;Temp;Humidity;BMP_temperature;BMP_pressure;BME280_temperature;BME280_humidity;BME280_pressure;Samples;Min_cycle;Max_cycle;Signal;HPM_P1;HPM_P2
2024/04/03 00:00:56;;;;;;;0.10;0.10;;;;;;;-145.06;100.00;52163.28;10485208;28;20016;-72
2024/04/03 00:05:56;;;;;;;0.08;0.08;;;;;;;-145.06;100.00;52165.31;10488689;28;20028;-71
2024/04/03 00:10:57;;;;;;;0.10;0.10;;;;;;;-145.06;100.00;52248.31;10489463;28;20413;-71
2024/04/03 00:15:57;;;;;;;0.00;0.00;;;;;;;-145.06;100.00;52323.19;10488492;28;20111;-72
2024/04/03 00:21:02;;;;;;;0.10;0.10;;;;;;;-145.06;100.00;52339.41;10491042;28;20021;-72
2024/04/03 00:26:02;;;;;;;0.10;0.10;;;;;;;-145.06;100.00;52333.31;10486161;28;20500;-71
2024/04/03 00:31:03;;;;;;;0.08;0.08;;;;;;;-145.06;100.00;52375.84;10484082;28;20017;-71
2024/04/03 00:36:03;;;;;;;0.10;0.10;;;;;;;-145.06;100.00;52438.59;10488107;28;20593;-72
2024/04/03 00:41:04;;;;;;;0.00;0.00;;;;;;;-145.06;100.00;52475.03;10482747;28;20020;-72
2024/04/03 00:46:05;;;;;;;0.10;0.10;;;;;;;-145.06;100.00;52460.84;10483898;28;20029;-72
2024/04/03 00:51:06;;;;;;;0.00;0.00;;;;;;;-145.06;100.00;52450.75;10484880;28;20020;-72
2024/04/03 00:56:07;;;;;;;0.10;0.10;;;;;;;-145.06;100.00;52464.91;10485074;28;20020;-71
2024/04/03 01:01:08;;;;;;;0.10;0.10;;;;;;;-145.06;100.00;52412.28;10482250;28;20091;-71
2024/04/03 01:06:08;;;;;;;0.00;0.00;;;;;;;-145.06;100.00;52426.44;10488280;28;20074;-72
2024/04/03 01:11:09;;;;;;;0.10;0.10;;;;;;;-145.06;100.00;52440.63;10480664;28;20052;-72
2024/04/03 01:16:09;;;;;;;0.00;0.00;;;;;;;-145.06;100.00;52537.78;10485101;28;20111;-72
2024/04/03 01:21:09;;;;;;;0.10;0.10;;;;;;;-145.06;100.00;52574.22;10482905;28;20294;-71
2024/04/03 01:26:09;;;;;;;0.00;0.00;;;;;;;-145.06;100.00;52590.44;10480173;28;20285;-72
2024/04/03 01:31:10;;;;;;;0.10;0.10;;;;;;;-145.06;100.00;52588.41;10485612;28;20024;-72
2024/04/03 01:36:10;;;;;;;0.10;0.10;;;;;;;-145.06;100.00;52580.31;10483866;28;20024;-72
2024/04/03 01:41:11;;;;;;;0.10;0.10;;;;;;;-145.06;100.00;52594.47;10483427;28;20058;-72
2024/04/03 01:46:11;;;;;;;0.10;0.10;;;;;;;-145.06;100.00;52545.88;10480341;28;20048;-72
2024/04/03 01:51:12;;;;;;;0.00;0.00;;;;;;;-145.06;100.00;52519.56;10480498;28;20095;-72
2024/04/03 01:56:13;;;;;;;0.10;0.10;;;;;;;-145.06;100.00;52529.69;10477596;28;20020;-72
2024/04/03 02:01:13;;;;;;;0.00;0.00;;;;;;;-145.06;100.00;52525.63;10480730;28;20020;-72
2024/04/03 02:06:13;;;;;;;0.10;0.10;;;;;;;-145.06;100.00;52537.78;10485213;28;20436;-72
2024/04/03 02:11:14;;;;;;;0.10;0.10;;;;;;;-145.06;100.00;52527.66;10478463;28;20016;-72
2024/04/03 02:16:14;;;;;;;0.10;0.10;;;;;;;-145.06;100.00;52608.66;10476437;28;20036;-73
2024/04/03 02:21:14;;;;;;;0.10;0.10;;;;;;;-145.06;100.00;52734.16;10480954;28;20475;-72
2024/04/03 02:26:15;;;;;;;0.00;0.00;;;;;;;-145.06;100.00;52780.72;10482223;28;20094;-71
2024/04/03 02:31:15;;;;;;;0.00;0.00;;;;;;;-145.06;100.00;52803.00;10478582;28;20401;-72
2024/04/03 02:36:16;;;;;;;0.10;0.10;;;;;;;-145.06;100.00;52835.41;10481457;28;20013;-72
2024/04/03 02:41:17;;;;;;;0.00;0.00;;;;;;;-145.06;100.00;52867.78;10479269;28;20082;-72
2024/04/03 02:46:17;;;;;;;0.00;0.00;;;;;;;-145.06;100.00;52827.28;10480574;28;20505;-72
2024/04/03 02:51:17;;;;;;;0.00;0.00;;;;;;;-145.06;100.00;52807.06;10474342;28;20259;-72
2024/04/03 02:56:18;;;;;;;0.10;0.10;;;;;;;-145.06;100.00;52831.34;10476630;28;20058;-72
2024/04/03 03:01:18;;;;;;;0.00;0.00;;;;;;;-145.06;100.00;52827.28;10475861;28;20040;-72
2024/04/03 03:06:18;;;;;;;0.00;0.00;;;;;;;-145.06;100.00;52803.00;10483448;28;20544;-72
2024/04/03 03:11:19;;;;;;;0.08;0.08;;;;;;;-145.06;100.00;52813.13;10467674;28;20037;-72
2024/04/03 03:16:21;;;;;;;0.00;0.00;;;;;;;-145.06;100.00;52875.88;10475742;28;20119;-72
2024/04/03 03:21:21;;;;;;;0.00;0.00;;;;;;;-145.06;100.00;52912.34;10477528;28;20099;-72
2024/04/03 03:26:21;;;;;;;0.00;0.00;;;;;;;-145.06;100.00;52924.47;10471992;28;20028;-72
2024/04/03 03:31:22;;;;;;;0.00;0.00;;;;;;;-145.06;100.00;52958.91;10472469;28;20016;-72
2024/04/03 03:36:22;;;;;;;0.00;0.00;;;;;;;-145.06;100.00;52904.22;10473988;28;20267;-72
2024/04/03 03:41:22;;;;;;;0.00;0.00;;;;;;;-145.06;100.00;52910.31;10478888;28;20025;-72
2024/04/03 03:46:22;;;;;;;0.00;0.00;;;;;;;-145.06;100.00;52946.75;10479546;28;20255;-72
2024/04/03 03:56:41;;;;;;;0.00;0.00;;;;;;;-145.06;100.00;52952.81;10475678;28;20020;-72
2024/04/03 04:01:42;;;;;;;0.00;0.00;;;;;;;-145.06;100.00;52991.28;10447827;28;20012;-72
2024/04/03 04:06:42;;;;;;;0.00;0.00;;;;;;;-145.06;100.00;53005.47;10469902;28;20027;-72
2024/04/03 04:11:42;;;;;;;0.00;0.00;;;;;;;-145.06;100.00;52979.16;10478311;28;20034;-72
2024/04/03 04:16:42;;;;;;;0.00;0.00;;;;;;;-145.06;100.00;52975.09;10474374;28;20028;-71
2024/04/03 04:21:43;;;;;;;0.00;0.00;;;;;;;-145.06;100.00;52997.38;10477285;28;20477;-72
2024/04/03 04:26:45;;;;;;;0.10;0.10;;;;;;;-145.06;100.00;52997.38;10480179;28;20473;-72
2024/04/03 04:31:45;;;;;;;0.08;0.08;;;;;;;-145.06;100.00;52985.22;10482469;28;20070;-72
2024/04/03 04:36:45;;;;;;;0.00;0.00;;;;;;;-145.06;100.00;52960.91;10481247;28;20016;-71
2024/04/03 04:41:52;;;;;;;0.00;0.00;;;;;;;-145.06;100.00;52979.16;10484718;28;20027;-71
2024/04/03 04:46:58;;;;;;;0.00;0.00;;;;;;;-145.06;100.00;53013.56;10482991;28;20255;-72
2024/04/03 04:51:59;;;;;;;0.00;0.00;;;;;;;-145.06;100.00;53064.19;10481060;28;20048;-72
2024/04/03 04:57:01;;;;;;;0.00;0.00;;;;;;;-145.06;100.00;53009.50;10482523;28;20121;-71
2024/04/03 05:02:01;;;;;;;0.10;0.10;;;;;;;-145.06;100.00;53094.56;10472691;28;20076;-71
2024/04/03 05:07:02;;;;;;;0.00;0.00;;;;;;;-145.06;100.00;53084.44;10476192;28;20032;-72
2024/04/03 05:12:03;;;;;;;0.00;0.00;;;;;;;-145.06;100.00;53072.28;10476668;28;20112;-71
2024/04/03 05:17:03;;;;;;;0.10;0.10;;;;;;;-145.06;100.00;53052.03;10477486;28;20056;-72
2024/04/03 05:22:05;;;;;;;0.00;0.00;;;;;;;-145.06;100.00;53052.03;10475214;28;20017;-71
2024/04/03 05:27:05;;;;;;;0.00;0.00;;;;;;;-145.06;100.00;53060.13;10469007;28;20271;-71
2024/04/03 05:32:06;;;;;;;0.00;0.00;;;;;;;-145.06;100.00;53025.72;10477237;28;20470;-71
2024/04/03 05:37:06;;;;;;;0.00;0.00;;;;;;;-145.06;100.00;53011.53;10472426;28;20386;-71
2024/04/03 05:42:06;;;;;;;0.00;0.00;;;;;;;-145.06;100.00;53019.63;10477658;28;20021;-71
2024/04/03 05:47:07;;;;;;;0.00;0.00;;;;;;;-145.06;100.00;53029.75;10482243;28;20021;-72
2024/04/03 05:52:07;;;;;;;0.00;0.00;;;;;;;-145.06;100.00;53017.63;10471552;28;20305;-72
2024/04/03 05:57:07;;;;;;;0.00;0.00;;;;;;;-145.06;100.00;53066.22;10477234;28;20060;-72
2024/04/03 06:02:07;;;;;;;0.00;0.00;;;;;;;-145.06;100.00;53104.69;10472677;28;20291;-71
2024/04/03 06:07:08;;;;;;;0.00;0.00;;;;;;;-145.06;100.00;53062.16;10476857;28;20021;-71
2024/04/03 06:12:08;;;;;;;0.00;0.00;;;;;;;-145.06;100.00;53041.91;10472106;28;20386;-71
2024/04/03 06:17:08;;;;;;;0.00;0.00;;;;;;;-145.06;100.00;53037.88;10472821;28;20036;-72
2024/04/03 06:22:09;;;;;;;0.00;0.00;;;;;;;-145.06;100.00;53058.09;10474411;28;20047;-71
2024/04/03 06:27:09;;;;;;;0.00;0.00;;;;;;;-145.06;100.00;53094.56;10474663;28;20340;-71
2024/04/03 06:32:10;;;;;;;0.10;0.10;;;;;;;-145.06;100.00;53110.75;10477399;28;20025;-71
2024/04/03 06:37:11;;;;;;;0.00;0.00;;;;;;;-145.06;100.00;53100.63;10471294;28;20036;-71
2024/04/03 06:42:12;;;;;;;0.00;0.00;;;;;;;-145.06;100.00;53175.53;10474234;28;20024;-71
2024/04/03 06:47:12;;;;;;;0.08;0.08;;;;;;;-145.06;100.00;53197.81;10478682;28;20020;-71
2024/04/03 06:52:12;;;;;;;0.00;0.00;;;;;;;-145.06;100.00;53159.34;10469655;28;20012;-71
2024/04/03 06:57:13;;;;;;;0.00;0.00;;;;;;;-145.06;100.00;53175.53;10469758;28;20016;-71
2024/04/03 07:02:14;;;;;;;0.10;0.10;;;;;;;-145.06;100.00;53147.19;10473026;28;20367;-71
2024/04/03 07:07:14;;;;;;;0.00;0.00;;;;;;;-145.06;100.00;53157.31;10473975;28;20029;-71
2024/04/03 07:12:14;;;;;;;0.00;0.00;;;;;;;-145.06;100.00;53139.09;10473015;28;20028;-71
2024/04/03 07:17:15;;;;;;;0.00;0.00;;;;;;;-145.06;100.00;53135.06;10468372;28;20477;-71
2024/04/03 07:22:15;;;;;;;0.00;0.00;;;;;;;-145.06;100.00;53161.38;10469629;28;20051;-72
2024/04/03 07:27:15;;;;;;;0.00;0.00;;;;;;;-145.06;100.00;53153.28;10472678;28;20024;-71
2024/04/03 07:32:16;;;;;;;0.10;0.10;;;;;;;-145.06;100.00;53082.41;10470690;28;20028;-71
2024/04/03 07:37:16;;;;;;;0.10;0.10;;;;;;;-145.06;100.00;53060.13;10470745;28;20458;-71
2024/04/03 07:42:16;;;;;;;0.00;0.00;;;;;;;-145.06;100.00;53035.84;10482218;28;20436;-71
2024/04/03 07:47:16;;;;;;;0.00;0.00;;;;;;;-145.06;100.00;53023.69;10470319;28;20040;-71
2024/04/03 07:52:18;;;;;;;0.00;0.00;;;;;;;-145.06;100.00;53003.44;10479494;28;20025;-71
2024/04/03 07:57:18;;;;;;;0.00;0.00;;;;;;;-145.06;100.00;53037.88;10483099;28;20036;-71
2024/04/03 08:02:18;;;;;;;0.00;0.00;;;;;;;-145.06;100.00;53005.47;10478360;28;20051;-71
2024/04/03 08:07:18;;;;;;;0.00;0.00;;;;;;;-145.06;100.00;53015.59;10485772;28;20028;-71
2024/04/03 08:12:20;;;;;;;0.00;0.00;;;;;;;-145.06;100.00;52995.34;10475660;28;20021;-73
2024/04/03 08:17:20;;;;;;;0.00;0.00;;;;;;;-145.06;100.00;53017.63;10477602;28;20386;-73
2024/04/03 08:22:21;;;;;;;0.00;0.00;;;;;;;-145.06;100.00;52997.38;10483674;28;20028;-72
2024/04/03 08:27:21;;;;;;;0.00;0.00;;;;;;;-145.06;100.00;52967.00;10476288;28;20091;-72
2024/04/03 08:32:22;;;;;;;0.00;0.00;;;;;;;-145.06;100.00;52964.97;10478243;28;20410;-72
2024/04/03 08:37:22;;;;;;;0.10;0.10;;;;;;;-145.06;100.00;52946.75;10481217;28;20066;-72
2024/04/03 08:42:22;;;;;;;0.10;0.10;;;;;;;-145.06;100.00;52910.31;10474063;28;20286;-72
2024/04/03 08:47:24;;;;;;;0.00;0.00;;;;;;;-145.06;100.00;52922.44;10481625;28;20394;-72
2024/04/03 08:52:28;;;;;;;0.08;0.08;;;;;;;-145.06;100.00;52873.88;10483351;28;20029;-72
2024/04/03 08:57:29;;;;;;;0.00;0.00;;;;;;;-145.06;100.00;52867.78;10485425;28;20150;-72
2024/04/03 09:02:29;;;;;;;0.03;0.03;;;;;;;-145.06;100.00;52884.00;10478636;28;20050;-72
2024/04/03 09:07:29;;;;;;;0.10;0.10;;;;;;;-145.06;100.00;52879.94;10476952;28;20079;-71
2024/04/03 09:12:30;;;;;;;0.00;0.00;;;;;;;-145.06;100.00;52855.63;10480322;28;20016;-72
2024/04/03 09:17:31;;;;;;;0.00;0.00;;;;;;;-145.06;100.00;52851.59;10477366;28;20070;-72
2024/04/03 09:22:31;;;;;;;0.00;0.00;;;;;;;-145.06;100.00;52798.94;10477391;28;20024;-71
2024/04/03 09:27:31;;;;;;;0.10;0.10;;;;;;;-145.06;100.00;52776.69;10483531;28;20035;-72
2024/04/03 09:32:33;;;;;;;0.00;0.00;;;;;;;-145.06;100.00;52784.78;10479035;28;20478;-72
2024/04/03 09:37:35;;;;;;;0.00;0.00;;;;;;;-145.06;100.00;52760.47;10477807;28;20012;-72
2024/04/03 09:42:36;;;;;;;0.10;0.10;;;;;;;-145.06;100.00;52776.69;10482473;28;20025;-72
2024/04/03 09:47:38;;;;;;;0.00;0.00;;;;;;;-145.06;100.00;52762.50;10485823;28;20033;-72
2024/04/03 09:52:40;;;;;;;0.10;0.10;;;;;;;-145.06;100.00;52713.91;10482166;28;20031;-72
2024/04/03 09:57:40;;;;;;;0.00;0.00;;;;;;;-145.06;100.00;52681.53;10481386;28;20032;-72
2024/04/03 10:02:48;;;;;;;0.10;0.10;;;;;;;-145.06;100.00;52701.78;10479617;28;20077;-72
2024/04/03 10:08:12;;;;;;;0.10;0.10;;;;;;;-145.06;100.00;52655.22;10481974;28;20036;-72
2024/04/03 10:13:22;;;;;;;0.00;0.00;;;;;;;-145.06;100.00;52675.44;10472408;28;20045;-72
2024/04/03 10:18:26;;;;;;;0.10;0.10;;;;;;;-145.06;100.00;52618.75;10482244;28;20542;-72
2024/04/03 10:23:26;;;;;;;0.10;0.10;;;;;;;-145.06;100.00;52582.31;10481335;28;20033;-72
2024/04/03 10:28:26;;;;;;;0.00;0.00;;;;;;;-145.06;100.00;52608.66;10479967;28;20024;-73
2024/04/03 10:33:29;;;;;;;0.00;0.00;;;;;;;-145.06;100.00;52582.31;10480767;28;20039;-72
2024/04/03 10:38:32;;;;;;;0.00;0.00;;;;;;;-145.06;100.00;52539.81;10473777;28;20029;-72
2024/04/03 10:43:32;;;;;;;0.00;0.00;;;;;;;-145.06;100.00;52600.53;10475663;28;20024;-72
2024/04/03 10:48:32;;;;;;;0.10;0.10;;;;;;;-145.06;100.00;52578.28;10474638;28;20389;-72
2024/04/03 10:53:34;;;;;;;0.00;0.00;;;;;;;-145.06;100.00;52549.94;10478704;28;20474;-72
2024/04/03 10:58:38;;;;;;;0.00;0.00;;;;;;;-145.06;100.00;52501.34;10475389;28;20463;-72
2024/04/03 11:03:40;;;;;;;0.10;0.10;;;;;;;-145.06;100.00;52503.38;10477268;28;20020;-72
2024/04/03 11:08:40;;;;;;;0.10;0.10;;;;;;;-145.06;100.00;52483.13;10477488;28;20159;-72
2024/04/03 11:13:47;;;;;;;0.10;0.10;;;;;;;-145.06;100.00;52452.75;10472970;28;20033;-72
2024/04/03 11:18:48;;;;;;;0.10;0.10;;;;;;;-145.06;100.00;52404.19;10477751;28;20382;-72
2024/04/03 11:23:48;;;;;;;0.00;0.00;;;;;;;-145.06;100.00;52408.22;10484600;28;20021;-72
2024/04/03 11:28:48;;;;;;;0.10;0.10;;;;;;;-145.06;100.00;52369.75;10484927;28;20390;-72
2024/04/03 11:33:49;;;;;;;0.00;0.00;;;;;;;-145.06;100.00;52341.41;10489965;28;20386;-72
2024/04/03 11:38:49;;;;;;;0.10;0.10;;;;;;;-145.06;100.00;52252.34;10486167;28;20481;-72
2024/04/03 11:43:49;;;;;;;0.10;0.10;;;;;;;-145.06;100.00;52256.41;10482051;28;20393;-72
2024/04/03 11:48:51;;;;;;;0.10;0.10;;;;;;;-145.06;100.00;52286.75;10487967;28;20039;-72
2024/04/03 11:53:51;;;;;;;0.03;0.03;;;;;;;-145.06;100.00;52242.22;10484627;28;20027;-72
2024/04/03 11:58:52;;;;;;;0.00;0.00;;;;;;;-145.06;100.00;52193.66;10484045;28;20024;-72
2024/04/03 12:03:53;;;;;;;0.10;0.10;;;;;;;-145.06;100.00;52219.97;10486757;28;20252;-72
2024/04/03 12:08:54;;;;;;;0.10;0.10;;;;;;;-145.06;100.00;52211.88;10486436;28;20017;-72
2024/04/03 12:13:54;;;;;;;0.10;0.10;;;;;;;-145.06;100.00;52169.34;10485929;28;20020;-72
2024/04/03 12:19:12;;;;;;;0.10;0.10;;;;;;;-145.06;100.00;52159.22;10486989;28;20036;-72
2024/04/03 12:24:14;;;;;;;0.10;0.10;;;;;;;-145.06;100.00;52163.28;10480650;28;20036;-72
2024/04/03 12:29:16;;;;;;;0.10;0.10;;;;;;;-145.06;100.00;52132.91;10485144;28;20512;-72
2024/04/03 12:34:16;;;;;;;0.10;0.10;;;;;;;-145.06;100.00;52118.75;10478816;28;20068;-72
2024/04/03 12:39:17;;;;;;;0.00;0.00;;;;;;;-145.06;100.00;52179.47;10483892;28;20020;-72
2024/04/03 12:44:17;;;;;;;0.10;0.10;;;;;;;-145.06;100.00;52120.78;10485071;28;20031;-72
2024/04/03 12:49:22;;;;;;;0.10;0.10;;;;;;;-145.06;100.00;52096.47;10484745;28;20163;-72
2024/04/03 12:54:22;;;;;;;0.05;0.05;;;;;;;-145.06;100.00;52011.47;10481156;28;20482;-72
2024/04/03 12:59:24;;;;;;;0.10;0.10;;;;;;;-145.06;100.00;51989.19;10486697;28;20112;-71
2024/04/03 13:04:24;;;;;;;0.10;0.10;;;;;;;-145.06;100.00;51936.56;10474628;28;20086;-72
2024/04/03 13:09:24;;;;;;;0.10;0.10;;;;;;;-145.06;100.00;52013.50;10487302;28;20040;-72
2024/04/03 13:14:25;;;;;;;0.10;0.10;;;;;;;-145.06;100.00;51960.84;10477760;28;20278;-71
2024/04/03 13:19:25;;;;;;;0.10;0.10;;;;;;;-145.06;100.00;51938.59;10476508;28;20064;-72
2024/04/03 13:24:26;;;;;;;0.10;0.10;;;;;;;-145.06;100.00;51956.81;10483966;28;20025;-72
2024/04/03 13:29:26;;;;;;;0.10;0.10;;;;;;;-145.06;100.00;51920.38;10475913;28;20031;-71
2024/04/03 13:34:26;;;;;;;0.10;0.10;;;;;;;-145.06;100.00;51883.94;10478134;28;20028;-71
2024/04/03 13:39:26;;;;;;;0.10;0.10;;;;;;;-145.06;100.00;51754.41;10473724;28;20035;-72
2024/04/03 13:44:27;;;;;;;0.10;0.10;;;;;;;-145.06;100.00;51774.63;10477786;28;20024;-72
2024/04/03 13:49:28;;;;;;;0.00;0.00;;;;;;;-145.06;100.00;51760.47;10479729;28;20032;-72
2024/04/03 13:54:28;;;;;;;0.00;0.00;;;;;;;-145.06;100.00;51673.44;10481995;28;20031;-72
2024/04/03 13:59:29;;;;;;;0.03;0.03;;;;;;;-145.06;100.00;51637.00;10475630;28;20017;-72
2024/04/03 14:04:29;;;;;;;0.10;0.10;;;;;;;-145.06;100.00;51653.19;10474905;28;20020;-71
2024/04/03 14:09:30;;;;;;;0.10;0.10;;;;;;;-145.06;100.00;51639.03;10477108;28;20039;-72
2024/04/03 14:14:30;;;;;;;0.10;0.10;;;;;;;-145.06;100.00;51671.41;10479996;28;20278;-71
2024/04/03 14:19:30;;;;;;;0.10;0.10;;;;;;;-145.06;100.00;51683.56;10475940;28;20020;-71
2024/04/03 14:24:31;;;;;;;0.10;0.10;;;;;;;-145.06;100.00;51562.13;10468031;28;20274;-71
2024/04/03 14:29:31;;;;;;;0.10;0.10;;;;;;;-145.06;100.00;51616.75;10478562;28;20308;-71
2024/04/03 14:34:31;;;;;;;0.05;0.05;;;;;;;-145.06;100.00;51588.44;10481978;28;20021;-71
2024/04/03 14:39:32;;;;;;;0.00;0.00;;;;;;;-145.06;100.00;51543.91;10477803;28;20012;-71
2024/04/03 14:44:32;;;;;;;0.10;0.10;;;;;;;-145.06;100.00;51446.75;10475360;28;20021;-70
2024/04/03 14:49:32;;;;;;;0.10;0.10;;;;;;;-145.06;100.00;51424.50;10477556;28;20028;-70
2024/04/03 14:54:33;;;;;;;0.10;0.10;;;;;;;-145.06;100.00;51450.81;10478940;28;20489;-70
2024/04/03 14:59:33;;;;;;;0.00;0.00;;;;;;;-145.06;100.00;51426.50;10479641;28;20016;-71
2024/04/03 15:04:33;;;;;;;0.10;0.10;;;;;;;-145.06;100.00;51434.59;10467943;28;20381;-70
2024/04/03 15:09:34;;;;;;;0.00;0.00;;;;;;;-145.06;100.00;51408.28;10471347;28;20035;-70
2024/04/03 15:14:35;;;;;;;0.10;0.10;;;;;;;-145.06;100.00;51386.03;10474781;28;20016;-70
2024/04/03 15:19:36;;;;;;;0.00;0.00;;;;;;;-145.06;100.00;51382.00;10470629;28;20037;-70
2024/04/03 15:24:36;;;;;;;0.10;0.10;;;;;;;-145.06;100.00;51379.97;10472096;28;20448;-70
2024/04/03 15:29:37;;;;;;;0.05;0.05;;;;;;;-145.06;100.00;51361.75;10464937;28;20008;-70
2024/04/03 15:34:41;;;;;;;0.10;0.10;;;;;;;-145.06;100.00;51365.78;10469113;28;20299;-70
2024/04/03 15:39:41;;;;;;;0.10;0.10;;;;;;;-145.06;100.00;51349.59;10476564;28;20035;-71
2024/04/03 15:44:42;;;;;;;0.10;0.10;;;;;;;-145.06;100.00;51349.59;10482607;28;20038;-70
2024/04/03 15:49:42;;;;;;;0.00;0.00;;;;;;;-145.06;100.00;51333.41;10477453;28;20275;-70
2024/04/03 15:54:42;;;;;;;0.00;0.00;;;;;;;-145.06;100.00;51319.25;10474432;28;20039;-71
2024/04/03 15:59:43;;;;;;;0.10;0.10;;;;;;;-145.06;100.00;51278.78;10480337;28;20478;-71
2024/04/03 16:04:43;;;;;;;0.10;0.10;;;;;;;-145.06;100.00;51288.88;10477627;28;20028;-71
2024/04/03 16:09:43;;;;;;;0.10;0.10;;;;;;;-145.06;100.00;51232.22;10473803;28;20017;-70
2024/04/03 16:14:44;;;;;;;0.10;0.10;;;;;;;-145.06;100.00;51228.19;10483281;28;20268;-70
2024/04/03 16:19:48;;;;;;;0.00;0.00;;;;;;;-145.06;100.00;51268.66;10480075;28;20608;-70
2024/04/03 16:24:48;;;;;;;0.10;0.10;;;;;;;-145.06;100.00;51236.28;10479037;28;20028;-70
2024/04/03 16:29:48;;;;;;;0.07;0.07;;;;;;;-145.06;100.00;51242.34;10482973;28;20462;-70
2024/04/03 16:34:48;;;;;;;0.10;0.10;;;;;;;-145.06;100.00;51252.47;10476573;28;20078;-70
2024/04/03 16:39:49;;;;;;;0.10;0.10;;;;;;;-145.06;100.00;51252.47;10483027;28;20467;-70
2024/04/03 16:44:49;;;;;;;0.00;0.00;;;;;;;-145.06;100.00;51238.28;10479315;28;20481;-71
2024/04/03 16:49:49;;;;;;;0.00;0.00;;;;;;;-145.06;100.00;51216.03;10480389;28;20390;-70
2024/04/03 16:54:53;;;;;;;0.10;0.10;;;;;;;-145.06;100.00;51244.38;10481832;28;20032;-71
2024/04/03 16:59:53;;;;;;;0.10;0.10;;;;;;;-145.06;100.00;51284.84;10480961;28;20391;-70
2024/04/03 17:04:54;;;;;;;0.10;0.10;;;;;;;-145.06;100.00;51262.59;10484499;28;20017;-70
2024/04/03 17:09:55;;;;;;;0.10;0.10;;;;;;;-145.06;100.00;51236.28;10472093;28;20013;-70
2024/04/03 17:14:55;;;;;;;0.10;0.10;;;;;;;-145.06;100.00;51222.09;10475168;28;20095;-70
2024/04/03 17:19:55;;;;;;;0.10;0.10;;;;;;;-145.06;100.00;51224.13;10478894;28;20426;-71
2024/04/03 17:24:55;;;;;;;0.00;0.00;;;;;;;-145.06;100.00;51220.09;10474290;28;20028;-70
2024/04/03 17:29:56;;;;;;;0.10;0.10;;;;;;;-145.06;100.00;51262.59;10475308;28;20027;-70
2024/04/03 17:34:58;;;;;;;0.00;0.00;;;;;;;-145.06;100.00;51280.78;10473766;28;20021;-71
2024/04/03 17:39:58;;;;;;;0.10;0.10;;;;;;;-145.06;100.00;51290.91;10474999;28;20025;-71
2024/04/03 17:45:00;;;;;;;0.00;0.00;;;;;;;-145.06;100.00;51272.69;10473992;28;20017;-70
2024/04/03 17:50:01;;;;;;;0.10;0.10;;;;;;;-145.06;100.00;51321.28;10471886;28;20017;-70
2024/04/03 17:55:02;;;;;;;0.10;0.10;;;;;;;-145.06;100.00;51337.47;10471287;28;20243;-69
2024/04/03 18:00:05;;;;;;;0.10;0.10;;;;;;;-145.06;100.00;51367.81;10473828;28;20021;-70
2024/04/03 18:05:06;;;;;;;0.00;0.00;;;;;;;-145.06;100.00;51408.28;10473527;28;20504;-71
2024/04/03 18:10:06;;;;;;;0.03;0.03;;;;;;;-145.06;100.00;51406.28;10477395;28;20027;-70
2024/04/03 18:15:07;;;;;;;0.00;0.00;;;;;;;-145.06;100.00;51375.91;10481896;28;20202;-70
2024/04/03 18:20:08;;;;;;;0.10;0.10;;;;;;;;;;10472318;28;20036;-70
2024/04/03 18:25:08;;;;;;;0.00;0.00;;;;;;;-145.06;100.00;51428.53;10475957;28;20050;-70
2024/04/03 18:30:09;;;;;;;0.10;0.10;;;;;;;-145.06;100.00;51438.66;10483615;28;20466;-71
2024/04/03 18:35:09;;;;;;;0.10;0.10;;;;;;;-145.06;100.00;51442.69;10479063;28;20108;-70
2024/04/03 18:40:09;;;;;;;0.10;0.10;;;;;;;-145.06;100.00;51003.53;10477705;28;20070;-70
2024/04/03 18:45:10;;;;;;;0.10;0.10;;;;;;;-145.06;100.00;51058.19;10467731;28;20276;-70
2024/04/03 18:50:11;;;;;;;0.00;0.00;;;;;;;-145.06;100.00;51062.22;10478626;28;20580;-69
2024/04/03 18:55:12;;;;;;;0.10;0.10;;;;;;;-145.06;100.00;51104.72;10478202;28;20012;-70
2024/04/03 19:00:12;;;;;;;0.00;0.00;;;;;;;-145.06;100.00;51149.25;10476640;28;20482;-69
2024/04/03 19:05:13;;;;;;;0.10;0.10;;;;;;;-145.06;100.00;51167.47;10474661;28;20385;-69
2024/04/03 19:10:13;;;;;;;0.00;0.00;;;;;;;-145.06;100.00;51175.56;10474033;28;20320;-70
2024/04/03 19:15:13;;;;;;;0.00;0.00;;;;;;;-145.06;100.00;51205.91;10477400;28;20251;-70
2024/04/03 19:20:14;;;;;;;0.10;0.10;;;;;;;-145.06;100.00;51127.00;10477635;28;20025;-70
2024/04/03 19:25:14;;;;;;;0.10;0.10;;;;;;;-145.06;100.00;51025.81;10475918;28;20028;-70
2024/04/03 19:30:14;;;;;;;0.10;0.10;;;;;;;-145.06;100.00;50908.44;10476229;28;20292;-70
2024/04/03 19:35:15;;;;;;;0.10;0.10;;;;;;;-145.06;100.00;51133.06;10476706;28;20056;-70
2024/04/03 19:40:15;;;;;;;0.10;0.10;;;;;;;-145.06;100.00;51133.06;10472678;28;20032;-70
2024/04/03 19:45:15;;;;;;;0.00;0.00;;;;;;;-145.06;100.00;51137.09;10477486;28;20108;-70
2024/04/03 19:50:15;;;;;;;0.10;0.10;;;;;;;-145.06;100.00;51131.03;10481546;28;20107;-70
2024/04/03 19:55:16;;;;;;;0.10;0.10;;;;;;;-145.06;100.00;51155.31;10481872;28;20074;-71
2024/04/03 20:00:17;;;;;;;0.10;0.10;;;;;;;-145.06;100.00;51179.59;10482212;28;20078;-71
2024/04/03 20:05:20;;;;;;;0.10;0.10;;;;;;;-145.06;100.00;51212.00;10482699;28;20082;-71
2024/04/03 20:10:26;;;;;;;0.00;0.00;;;;;;;-145.06;100.00;51161.38;10481131;28;20102;-71
2024/04/03 20:15:26;;;;;;;0.10;0.10;;;;;;;-145.06;100.00;51199.84;10481355;28;20513;-71
2024/04/03 20:20:26;;;;;;;0.10;0.10;;;;;;;-145.06;100.00;51165.44;10488299;28;20027;-71
2024/04/03 20:25:27;;;;;;;0.10;0.10;;;;;;;-145.06;100.00;51201.88;10481117;28;20141;-71
2024/04/03 20:30:27;;;;;;;0.10;0.10;;;;;;;-145.06;100.00;51220.09;10491854;28;20094;-71
2024/04/03 20:35:29;;;;;;;0.10;0.10;;;;;;;-145.06;100.00;51244.38;10480650;28;20370;-71
2024/04/03 20:40:34;;;;;;;0.10;0.10;;;;;;;-145.06;100.00;51228.19;10488141;28;20465;-72
2024/04/03 20:45:35;;;;;;;0.10;0.10;;;;;;;-145.06;100.00;51246.38;10485292;28;20031;-72
2024/04/03 20:50:35;;;;;;;0.10;0.10;;;;;;;-145.06;100.00;51274.72;10487860;28;20012;-72
2024/04/03 20:55:36;;;;;;;0.10;0.10;;;;;;;-145.06;100.00;51260.56;10485724;28;20025;-72
2024/04/03 21:00:36;;;;;;;0.10;0.10;;;;;;;-145.06;100.00;51240.31;10484014;28;20779;-72
2024/04/03 21:05:36;;;;;;;0.10;0.10;;;;;;;-145.06;100.00;51280.78;10483250;28;20024;-72
2024/04/03 21:10:37;;;;;;;0.10;0.10;;;;;;;-145.06;100.00;51276.75;10483685;28;20017;-72
2024/04/03 21:15:37;;;;;;;0.00;0.00;;;;;;;-145.06;100.00;51288.88;10486173;28;20024;-72
2024/04/03 21:20:37;;;;;;;0.10;0.10;;;;;;;-145.06;100.00;51268.66;10484486;28;20043;-72
2024/04/03 21:25:38;;;;;;;0.10;0.10;;;;;;;-145.06;100.00;51309.13;10486248;28;20457;-72
2024/04/03 21:30:39;;;;;;;0.10;0.10;;;;;;;-145.06;100.00;52446.69;10480686;28;20028;-72
2024/04/03 21:35:39;;;;;;;0.00;0.00;;;;;;;-145.06;100.00;52426.44;10483861;28;20267;-71
2024/04/03 21:40:39;;;;;;;0.00;0.00;;;;;;;-145.06;100.00;52456.81;10478961;28;20017;-71
2024/04/03 21:45:41;;;;;;;0.10;0.10;;;;;;;-145.06;100.00;52458.84;10483189;28;20028;-72
2024/04/03 21:50:41;;;;;;;0.10;0.10;;;;;;;-145.06;100.00;52466.94;10485403;28;20021;-72
2024/04/03 21:55:44;;;;;;;0.10;0.10;;;;;;;-145.06;100.00;52473.00;10483704;28;20017;-72
2024/04/03 22:00:44;;;;;;;0.10;0.10;;;;;;;-145.06;100.00;52428.47;10482569;28;20031;-72
2024/04/03 22:05:44;;;;;;;0.10;0.10;;;;;;;-145.06;100.00;52458.84;10477971;28;20020;-72
2024/04/03 22:10:55;;;;;;;0.00;0.00;;;;;;;-145.06;100.00;52460.84;10479511;28;20032;-72
2024/04/03 22:15:55;;;;;;;0.10;0.10;;;;;;;-145.06;100.00;52462.88;10481266;28;20120;-72
2024/04/03 22:20:56;;;;;;;0.10;0.10;;;;;;;-145.06;100.00;52511.47;10480580;28;20463;-72
2024/04/03 22:25:56;;;;;;;0.10;0.10;;;;;;;-145.06;100.00;52499.31;10480462;28;20025;-72
2024/04/03 22:30:56;;;;;;;0.00;0.00;;;;;;;-145.06;100.00;52547.91;10479844;28;20102;-72
2024/04/03 22:35:57;;;;;;;0.10;0.10;;;;;;;-145.06;100.00;52647.13;10479091;28;20070;-72